Time;durP1;ratioP1;P1;durP2;ratioP2;P2;SDS_P1;SDS_P2;PMS_P1;PMS_P2;Temp;Humidity;BMP_temperature;BMP_pressure;BME280_temperature;BME280_humidity;BME280_pressure;Samples;Min_cycle;Max_cycle;Signal;HPM_P1;HPM_P2
2023/06/15 00:01:16;;;;;;;2.63;1.95;;;20.70;95.90;;;;;;5030906;28;20412;-38
2023/06/15 00:03:44;;;;;;;4.43;2.30;;;20.70;96.00;;;;;;5046635;28;20026;-35
2023/06/15 00:06:10;;;;;;;4.68;2.40;;;20.70;95.90;;;;;;5031043;28;20045;-36
2023/06/15 00:08:36;;;;;;;5.28;2.03;;;20.70;96.00;;;;;;5031717;28;20072;-39
2023/06/15 00:11:03;;;;;;;2.83;2.50;;;20.70;96.00;;;;;;5031097;28;20049;-33
2023/06/15 00:13:29;;;;;;;2.75;2.08;;;20.70;96.00;;;;;;5030934;28;20025;-35
2023/06/15 00:15:55;;;;;;;3.45;2.10;;;20.70;96.00;;;;;;5030862;28;20025;-38
2023/06/15 00:18:20;;;;;;;4.97;2.30;;;20.70;96.00;;;;;;5030781;28;20022;-35
2023/06/15 00:20:47;;;;;;;5.18;2.40;;;20.60;96.00;;;;;;5031296;28;20029;-39
2023/06/15 00:23:17;;;;;;;5.45;2.20;;;20.60;95.90;;;;;;5030846;28;20459;-38
2023/06/15 00:25:43;;;;;;;2.25;1.95;;;20.70;96.00;;;;;;5030747;28;20017;-39
2023/06/15 00:28:08;;;;;;;4.85;2.25;;;20.60;96.00;;;;;;5031882;28;20021;-35
2023/06/15 00:30:34;;;;;;;3.88;2.17;;;20.60;95.90;;;;;;5030488;28;20036;-34
2023/06/15 00:33:00;;;;;;;3.20;2.20;;;20.60;95.90;;;;;;5030800;28;20049;-36
2023/06/15 00:35:25;;;;;;;3.25;2.42;;;20.60;96.00;;;;;;5030794;28;20069;-36
2023/06/15 00:37:51;;;;;;;3.83;2.10;;;20.60;96.00;;;;;;5030668;28;20026;-39
2023/06/15 00:40:17;;;;;;;4.03;2.40;;;20.60;96.00;;;;;;5030448;28;20403;-35
2023/06/15 00:42:44;;;;;;;6.28;2.55;;;20.60;96.00;;;;;;5030735;28;20045;-36
2023/06/15 00:45:10;;;;;;;2.42;2.10;;;20.60;96.00;;;;;;5030746;28;20064;-36
2023/06/15 00:47:39;;;;;;;3.47;2.58;;;20.60;96.00;;;;;;5030695;28;20148;-36
2023/06/15 00:50:09;;;;;;;5.68;2.50;;;20.60;96.00;;;;;;5030612;28;20021;-33
2023/06/15 00:52:37;;;;;;;3.75;2.30;;;20.60;96.00;;;;;;5031037;28;20026;-36
2023/06/15 00:55:03;;;;;;;3.03;2.33;;;20.60;96.00;;;;;;5031249;28;20025;-36
2023/06/15 00:57:30;;;;;;;3.45;2.40;;;20.60;96.00;;;;;;5030510;28;20032;-38
2023/06/15 00:59:56;;;;;;;3.90;2.20;;;20.60;96.00;;;;;;5031423;28;20056;-35
2023/06/15 01:02:24;;;;;;;6.53;2.60;;;20.60;96.00;;;;;;5034054;28;20105;-36
2023/06/15 01:04:50;;;;;;;2.88;2.28;;;20.60;96.00;;;;;;5033962;28;20071;-34
2023/06/15 01:07:16;;;;;;;2.40;2.03;;;20.60;96.00;;;;;;5034406;28;20037;-36
2023/06/15 01:09:43;;;;;;;4.30;2.40;;;20.60;96.00;;;;;;5033958;28;20022;-38
2023/06/15 01:12:11;;;;;;;4.40;2.35;;;20.60;96.00;;;;;;5033736;28;20029;-38
2023/06/15 01:14:38;;;;;;;2.50;2.28;;;20.50;96.00;;;;;;5034763;28;20257;-39
2023/06/15 01:17:08;;;;;;;3.72;2.47;;;20.50;96.00;;;;;;5035864;28;20025;-35
2023/06/15 01:19:57;;;;;;;3.13;2.35;;;20.50;95.90;;;;;;5034095;28;20030;-35
2023/06/15 01:22:45;;;;;;;3.95;2.80;;;20.50;96.00;;;;;;5034251;28;20033;-39
2023/06/15 01:25:41;;;;;;;6.93;2.67;;;20.50;95.90;;;;;;5033576;28;20033;-36
2023/06/15 01:28:09;;;;;;;2.80;2.45;;;20.50;95.90;;;;;;5025364;28;20057;-35
2023/06/15 01:30:44;;;;;;;4.68;2.53;;;20.50;95.90;;;;;;5033996;28;20018;-36
2023/06/15 01:33:10;;;;;;;3.22;2.28;;;20.50;96.00;;;;;;5034186;28;20049;-41
2023/06/15 01:35:37;;;;;;;5.10;2.35;;;20.50;96.00;;;;;;5033430;28;20074;-35
2023/06/15 01:38:03;;;;;;;4.03;1.92;;;20.50;96.00;;;;;;5033481;28;20033;-39
2023/06/15 01:40:30;;;;;;;5.60;2.20;;;20.50;96.00;;;;;;5033574;28;20021;-38
2023/06/15 01:42:57;;;;;;;2.92;2.25;;;20.50;96.00;;;;;;5034227;28;20044;-35
2023/06/15 01:45:25;;;;;;;4.90;2.58;;;20.50;95.90;;;;;;5033277;28;20026;-38
2023/06/15 01:47:51;;;;;;;5.05;2.40;;;20.50;96.00;;;;;;5034195;28;20029;-36
2023/06/15 01:50:18;;;;;;;3.88;2.35;;;20.50;96.00;;;;;;5032977;28;20032;-35
2023/06/15 01:52:44;;;;;;;2.75;2.40;;;20.50;95.90;;;;;;5034486;28;20022;-36
2023/06/15 01:55:10;;;;;;;3.15;2.50;;;20.40;95.90;;;;;;5033704;28;20558;-34
2023/06/15 01:57:37;;;;;;;2.90;2.45;;;20.40;95.90;;;;;;5032972;28;20037;-36
2023/06/15 02:00:08;;;;;;;4.68;2.53;;;20.50;96.00;;;;;;5033091;28;20028;-36
2023/06/15 02:02:33;;;;;;;3.47;2.60;;;20.40;96.00;;;;;;5033215;28;20029;-39
2023/06/15 02:04:59;;;;;;;2.72;2.30;;;20.40;96.00;;;;;;5032898;28;20499;-36
2023/06/15 02:07:25;;;;;;;4.40;2.72;;;20.40;95.90;;;;;;5032702;28;20455;-35
2023/06/15 02:09:52;;;;;;;3.00;2.50;;;20.40;95.90;;;;;;5033476;28;20097;-38
2023/06/15 02:12:17;;;;;;;4.20;2.13;;;20.40;96.00;;;;;;5032877;28;20033;-36
2023/06/15 02:14:43;;;;;;;4.07;2.55;;;20.40;96.00;;;;;;5032598;28;20029;-37
2023/06/15 02:17:09;;;;;;;2.88;2.42;;;20.40;96.00;;;;;;5032778;28;20465;-35
2023/06/15 02:19:35;;;;;;;4.10;2.15;;;20.40;96.00;;;;;;5032596;28;20025;-35
2023/06/15 02:22:01;;;;;;;3.03;2.05;;;20.40;96.00;;;;;;5032703;28;20512;-38
2023/06/15 02:24:26;;;;;;;4.53;2.25;;;20.40;96.00;;;;;;5047669;28;20082;-34
2023/06/15 02:26:52;;;;;;;2.90;1.98;;;20.40;96.00;;;;;;5032701;28;20026;-36
2023/06/15 02:29:17;;;;;;;3.47;2.50;;;20.40;96.10;;;;;;5032565;28;20041;-36
2023/06/15 02:31:43;;;;;;;5.20;2.60;;;20.40;96.10;;;;;;5033561;28;20026;-36
2023/06/15 02:34:09;;;;;;;5.05;2.90;;;20.40;95.70;;;;;;5032496;28;20039;-36
2023/06/15 02:36:37;;;;;;;4.38;2.72;;;20.00;94.00;;;;;;5033962;28;20396;-38
2023/06/15 02:39:03;;;;;;;5.90;2.75;;;19.40;94.60;;;;;;5032537;28;20029;-35
2023/06/15 02:41:29;;;;;;;4.68;2.65;;;19.20;95.10;;;;;;5032604;28;20124;-35
2023/06/15 02:43:55;;;;;;;6.25;2.80;;;19.10;95.30;;;;;;5031999;28;20125;-38
2023/06/15 02:46:22;;;;;;;7.47;2.85;;;19.20;95.40;;;;;;5033310;28;20025;-35
2023/06/15 02:48:51;;;;;;;7.22;2.97;;;19.30;95.60;;;;;;5031977;28;20544;-33
2023/06/15 02:51:20;;;;;;;3.65;2.38;;;19.40;95.70;;;;;;5032330;28;20022;-36
2023/06/15 02:53:47;;;;;;;5.07;2.42;;;19.50;95.80;;;;;;5032001;28;20026;-36
2023/06/15 02:56:18;;;;;;;4.10;2.75;;;19.60;95.80;;;;;;5031890;28;20103;-39
2023/06/15 02:58:47;;;;;;;3.78;2.75;;;19.70;95.90;;;;;;5031786;28;20029;-37
2023/06/15 03:01:15;;;;;;;12.25;2.47;;;19.70;95.80;;;;;;5032692;28;20028;-33
2023/06/15 03:03:42;;;;;;;3.92;2.60;;;19.80;95.80;;;;;;5032047;28;20029;-37
2023/06/15 03:06:09;;;;;;;4.38;2.90;;;19.80;95.80;;;;;;5031712;28;20421;-33
2023/06/15 03:08:35;;;;;;;3.28;2.45;;;19.80;95.70;;;;;;5031612;28;20036;-35
2023/06/15 03:11:02;;;;;;;4.35;2.38;;;19.80;95.70;;;;;;5031388;28;20040;-35
2023/06/15 03:13:29;;;;;;;9.18;2.78;;;19.80;95.70;;;;;;5031853;28;20033;-35
2023/06/15 03:15:55;;;;;;;4.20;2.75;;;19.90;95.70;;;;;;5031613;28;20026;-36
2023/06/15 03:18:21;;;;;;;3.85;2.47;;;19.90;95.70;;;;;;5032032;28;20021;-37
2023/06/15 03:20:52;;;;;;;4.05;2.53;;;19.90;95.70;;;;;;5031559;28;20036;-35
2023/06/15 03:23:21;;;;;;;3.58;2.80;;;19.90;95.70;;;;;;5031454;28;20026;-36
2023/06/15 03:25:49;;;;;;;6.03;3.00;;;19.90;95.70;;;;;;5031414;28;20056;-38
2023/06/15 03:28:16;;;;;;;4.10;2.40;;;19.90;95.60;;;;;;5031355;28;20036;-35
2023/06/15 03:30:46;;;;;;;3.58;2.67;;;19.90;95.60;;;;;;5031375;28;20348;-36
2023/06/15 03:33:13;;;;;;;3.15;2.40;;;20.00;95.60;;;;;;5031675;28;20065;-36
2023/06/15 03:35:39;;;;;;;3.35;2.60;;;20.00;95.60;;;;;;5031622;28;20113;-36
2023/06/15 03:38:05;;;;;;;4.10;2.58;;;20.00;95.60;;;;;;5031073;28;20477;-38
2023/06/15 03:40:36;;;;;;;3.67;2.55;;;20.00;95.60;;;;;;5032983;28;20580;-35
2023/06/15 03:43:02;;;;;;;3.63;2.40;;;20.00;96.00;;;;;;5031292;28;20096;-33
2023/06/15 03:45:28;;;;;;;5.82;2.80;;;20.00;95.60;;;;;;5031532;28;20124;-36
2023/06/15 03:47:53;;;;;;;3.40;2.60;;;20.00;95.60;;;;;;5031148;28;20029;-35
2023/06/15 03:50:19;;;;;;;3.92;2.40;;;20.00;95.60;;;;;;5030928;28;20052;-33
2023/06/15 03:52:44;;;;;;;5.47;2.58;;;20.00;95.60;;;;;;5030995;28;20025;-35
2023/06/15 03:55:12;;;;;;;3.53;2.35;;;20.00;95.60;;;;;;5031240;28;20075;-36
2023/06/15 03:57:38;;;;;;;2.97;2.60;;;20.00;95.60;;;;;;5031590;28;20422;-36
2023/06/15 04:00:07;;;;;;;3.80;2.67;;;20.00;95.60;;;;;;5031858;28;20033;-32
2023/06/15 04:02:33;;;;;;;2.85;2.55;;;20.00;95.60;;;;;;5031816;28;20022;-36
2023/06/15 04:05:00;;;;;;;3.80;2.75;;;20.00;95.50;;;;;;5031929;28;20034;-36
2023/06/15 04:07:28;;;;;;;4.53;2.40;;;20.00;95.50;;;;;;5031029;28;20041;-35
2023/06/15 04:09:54;;;;;;;4.88;2.67;;;20.00;95.60;;;;;;5030913;28;20021;-36
2023/06/15 04:12:19;;;;;;;3.83;2.47;;;20.00;95.60;;;;;;5030932;28;20026;-35
2023/06/15 04:14:46;;;;;;;3.10;2.40;;;20.00;95.50;;;;;;5030961;28;20021;-35
2023/06/15 04:17:12;;;;;;;4.35;2.70;;;20.00;95.50;;;;;;5031231;28;20048;-36
2023/06/15 04:19:38;;;;;;;2.63;2.40;;;20.00;95.50;;;;;;5030838;28;20032;-36
2023/06/15 04:22:05;;;;;;;3.47;2.30;;;20.00;95.60;;;;;;5030905;28;20026;-35
2023/06/15 04:24:30;;;;;;;4.45;2.80;;;20.00;95.50;;;;;;5031981;28;20403;-40
2023/06/15 04:26:59;;;;;;;6.38;2.75;;;20.00;95.60;;;;;;5030786;28;20021;-35
2023/06/15 04:29:30;;;;;;;3.28;2.30;;;20.00;95.60;;;;;;5031326;28;20018;-35
2023/06/15 04:31:57;;;;;;;4.72;2.35;;;20.00;95.90;;;;;;5031239;28;20262;-34
2023/06/15 04:34:26;;;;;;;3.15;2.40;;;20.00;95.90;;;;;;5032433;28;20021;-42
2023/06/15 04:36:54;;;;;;;3.15;2.50;;;20.00;95.60;;;;;;5035081;28;20030;-38
2023/06/15 04:39:27;;;;;;;5.13;2.50;;;20.00;95.60;;;;;;5035228;28;20030;-35
2023/06/15 04:41:54;;;;;;;4.07;2.70;;;20.00;95.60;;;;;;5034317;28;20018;-36
2023/06/15 04:44:20;;;;;;;6.15;2.80;;;20.00;95.60;;;;;;5034409;28;20503;-35
2023/06/15 04:46:46;;;;;;;4.00;2.40;;;20.00;95.60;;;;;;5034197;28;20500;-36
2023/06/15 04:49:12;;;;;;;4.00;2.58;;;20.00;95.60;;;;;;5034278;28;20048;-33
2023/06/15 04:51:38;;;;;;;3.65;2.65;;;20.00;95.60;;;;;;5035035;28;20362;-35
2023/06/15 04:54:03;;;;;;;3.15;2.45;;;20.00;95.60;;;;;;5035752;28;20495;-39
2023/06/15 04:56:29;;;;;;;3.92;2.50;;;20.00;95.60;;;;;;5034352;28;20029;-33
2023/06/15 04:58:55;;;;;;;4.57;2.47;;;20.00;95.60;;;;;;5034070;28;20028;-39
2023/06/15 05:01:21;;;;;;;3.20;2.38;;;20.00;95.70;;;;;;5033858;28;20044;-40
2023/06/15 05:03:46;;;;;;;3.45;2.65;;;20.00;95.60;;;;;;5033887;28;20474;-35
2023/06/15 05:06:12;;;;;;;3.47;2.33;;;20.00;95.60;;;;;;5034818;28;20026;-40
2023/06/15 05:08:38;;;;;;;5.38;2.53;;;20.00;95.60;;;;;;5034787;28;20034;-34
2023/06/15 05:11:03;;;;;;;3.80;2.30;;;20.00;95.60;;;;;;5033777;28;20020;-33
2023/06/15 05:13:30;;;;;;;3.47;2.40;;;20.00;95.60;;;;;;5033904;28;20104;-38
2023/06/15 05:15:55;;;;;;;3.05;2.30;;;20.00;95.60;;;;;;5033821;28;20032;-35
2023/06/15 05:18:21;;;;;;;4.13;2.38;;;20.00;95.60;;;;;;5033640;28;20033;-39
2023/06/15 05:20:47;;;;;;;3.08;2.38;;;20.00;95.70;;;;;;5033771;28;20100;-39
2023/06/15 05:23:13;;;;;;;3.13;2.35;;;20.00;95.60;;;;;;5034713;28;20071;-38
2023/06/15 05:25:39;;;;;;;3.03;2.45;;;20.00;95.60;;;;;;5033905;28;20377;-39
2023/06/15 05:28:04;;;;;;;2.80;2.08;;;20.00;95.60;;;;;;5034764;28;20033;-35
2023/06/15 05:30:30;;;;;;;4.50;2.50;;;20.00;95.60;;;;;;5033285;28;20022;-36
2023/06/15 05:32:56;;;;;;;3.65;2.58;;;20.00;95.60;;;;;;5033487;28;20428;-36
2023/06/15 05:35:21;;;;;;;4.13;2.25;;;20.00;95.60;;;;;;5033852;28;20029;-36
2023/06/15 05:37:47;;;;;;;2.95;2.47;;;20.00;95.70;;;;;;5033596;28;20148;-33
2023/06/15 05:40:13;;;;;;;4.03;2.70;;;20.00;95.70;;;;;;5033390;28;20060;-35
2023/06/15 05:42:39;;;;;;;4.63;2.45;;;20.00;95.70;;;;;;5034161;28;20036;-36
2023/06/15 05:45:05;;;;;;;3.67;2.53;;;20.00;95.70;;;;;;5032773;28;20032;-36
2023/06/15 05:47:32;;;;;;;4.63;2.42;;;20.00;95.70;;;;;;5032895;28;20025;-36
2023/06/15 05:49:57;;;;;;;4.70;2.58;;;20.00;95.70;;;;;;5033084;28;20074;-41
2023/06/15 05:52:23;;;;;;;2.78;2.25;;;20.00;95.80;;;;;;5033075;28;20093;-35
2023/06/15 05:54:49;;;;;;;4.32;2.42;;;20.00;95.70;;;;;;5048340;28;20026;-35
2023/06/15 05:57:14;;;;;;;6.18;2.65;;;20.00;95.70;;;;;;5032974;28;20141;-36
2023/06/15 05:59:40;;;;;;;2.83;2.30;;;20.00;95.70;;;;;;5032893;28;20035;-35
2023/06/15 06:02:07;;;;;;;4.97;2.65;;;20.00;95.70;;;;;;5032731;28;20053;-35
2023/06/15 06:04:34;;;;;;;4.25;2.78;;;20.00;95.80;;;;;;5032770;28;20503;-36
2023/06/15 06:07:00;;;;;;;6.10;2.30;;;20.00;95.80;;;;;;5032810;28;20044;-39
2023/06/15 06:09:26;;;;;;;3.78;2.42;;;20.00;96.20;;;;;;5032894;28;20046;-35
2023/06/15 06:11:51;;;;;;;4.05;2.67;;;20.00;95.80;;;;;;5032644;28;20060;-36
2023/06/15 06:14:17;;;;;;;3.85;2.70;;;20.00;95.80;;;;;;5032579;28;20025;-40
2023/06/15 06:16:43;;;;;;;3.92;2.30;;;20.00;96.00;;;;;;5032857;28;20355;-35
2023/06/15 06:19:08;;;;;;;2.72;2.03;;;20.00;95.80;;;;;;5032695;28;20376;-36
2023/06/15 06:21:34;;;;;;;3.38;2.58;;;20.00;95.80;;;;;;5032467;28;20021;-39
2023/06/15 06:24:00;;;;;;;3.45;2.30;;;20.00;95.90;;;;;;5047863;28;20037;-38
2023/06/15 06:26:25;;;;;;;5.80;2.55;;;20.00;95.90;;;;;;5033072;28;20021;-35
2023/06/15 06:28:52;;;;;;;3.70;2.33;;;20.00;95.90;;;;;;5034054;28;20052;-35
2023/06/15 06:31:18;;;;;;;5.93;2.42;;;20.00;95.90;;;;;;5033626;28;20032;-36
2023/06/15 06:33:43;;;;;;;4.05;2.53;;;20.00;95.90;;;;;;5032426;28;20096;-35
2023/06/15 06:36:09;;;;;;;4.00;2.65;;;20.00;96.00;;;;;;5032357;28;20055;-35
2023/06/15 06:38:35;;;;;;;3.50;2.50;;;20.00;96.00;;;;;;5047510;28;20461;-37
2023/06/15 06:41:01;;;;;;;3.75;2.75;;;20.00;96.00;;;;;;5032505;28;20028;-35
2023/06/15 06:43:26;;;;;;;4.57;2.10;;;20.00;96.00;;;;;;5032629;28;20388;-34
2023/06/15 06:45:52;;;;;;;3.50;2.47;;;20.00;96.00;;;;;;5032030;28;20163;-36
2023/06/15 06:48:18;;;;;;;4.38;2.45;;;20.00;96.00;;;;;;5032054;28;20034;-35
2023/06/15 06:50:43;;;;;;;3.00;2.33;;;20.00;96.00;;;;;;5031863;28;20103;-39
2023/06/15 06:53:10;;;;;;;3.38;2.33;;;20.00;96.00;;;;;;5032428;28;20129;-35
2023/06/15 06:55:35;;;;;;;3.20;2.20;;;20.00;96.00;;;;;;5031935;28;20423;-36
2023/06/15 06:58:01;;;;;;;3.03;2.33;;;20.10;96.00;;;;;;5030805;28;20021;-36
2023/06/15 07:00:30;;;;;;;5.15;2.55;;;20.00;95.90;;;;;;5031603;28;20389;-35
2023/06/15 07:02:56;;;;;;;4.25;2.30;;;20.10;95.90;;;;;;5031964;28;20029;-35
2023/06/15 07:05:22;;;;;;;2.78;2.35;;;20.10;95.90;;;;;;5031704;28;20029;-36
2023/06/15 07:07:48;;;;;;;2.92;2.38;;;20.10;95.90;;;;;;5046786;28;20033;-35
2023/06/15 07:10:14;;;;;;;3.53;2.50;;;20.10;95.90;;;;;;5031706;28;20029;-35
2023/06/15 07:12:40;;;;;;;3.92;2.40;;;20.10;95.90;;;;;;5031585;28;20022;-38
2023/06/15 07:15:06;;;;;;;3.22;2.67;;;20.10;96.00;;;;;;5031602;28;20445;-35
2023/06/15 07:17:32;;;;;;;4.70;2.70;;;20.10;96.00;;;;;;5031532;28;20424;-35
2023/06/15 07:19:58;;;;;;;3.03;2.28;;;20.20;96.00;;;;;;5031448;28;20026;-38
2023/06/15 07:22:24;;;;;;;2.95;2.30;;;20.20;95.90;;;;;;5031725;28;20048;-33
2023/06/15 07:24:52;;;;;;;3.55;2.42;;;20.20;96.00;;;;;;5031916;28;20026;-33
2023/06/15 07:27:18;;;;;;;4.75;2.40;;;20.20;96.00;;;;;;5031479;28;20465;-36
2023/06/15 07:29:45;;;;;;;3.50;2.30;;;20.20;96.00;;;;;;5031346;28;20029;-37
2023/06/15 07:32:10;;;;;;;5.13;2.42;;;20.20;96.00;;;;;;5031251;28;20130;-36
2023/06/15 07:34:36;;;;;;;3.08;2.40;;;20.20;96.00;;;;;;5031491;28;20112;-38
2023/06/15 07:37:02;;;;;;;3.83;2.17;;;20.20;96.00;;;;;;5031364;28;20155;-35
2023/06/15 07:39:28;;;;;;;2.80;2.38;;;20.20;96.00;;;;;;5031342;28;20473;-36
2023/06/15 07:41:54;;;;;;;4.25;2.53;;;20.20;96.30;;;;;;5031061;28;20488;-36
2023/06/15 07:44:20;;;;;;;3.97;2.35;;;20.20;96.00;;;;;;5031086;28;20068;-35
2023/06/15 07:46:46;;;;;;;3.78;2.42;;;20.20;96.00;;;;;;5031486;28;20028;-39
2023/06/15 07:49:11;;;;;;;7.95;2.50;;;20.20;96.00;;;;;;5031188;28;20084;-39
2023/06/15 07:51:37;;;;;;;3.00;2.28;;;20.20;96.00;;;;;;5031434;28;20076;-36
2023/06/15 07:54:03;;;;;;;3.03;1.98;;;20.20;96.00;;;;;;5031941;28;20025;-33
2023/06/15 07:56:29;;;;;;;2.83;2.13;;;20.20;96.00;;;;;;5031074;28;20029;-33
2023/06/15 07:58:54;;;;;;;3.22;2.00;;;20.20;96.00;;;;;;5030957;28;20028;-36
2023/06/15 08:01:20;;;;;;;4.22;1.95;;;20.20;96.00;;;;;;5030868;28;20033;-36
2023/06/15 08:03:46;;;;;;;5.15;2.50;;;20.20;95.90;;;;;;5031050;28;20256;-35
2023/06/15 08:06:12;;;;;;;3.53;2.35;;;20.30;96.00;;;;;;5031963;28;20085;-36
2023/06/15 08:08:37;;;;;;;3.10;2.22;;;20.30;96.00;;;;;;5031589;28;20099;-36
2023/06/15 08:11:05;;;;;;;2.42;2.10;;;20.30;95.90;;;;;;5034976;28;20100;-34
2023/06/15 08:13:31;;;;;;;2.95;2.10;;;20.30;95.90;;;;;;5035008;28;20465;-36
2023/06/15 08:15:57;;;;;;;2.30;2.10;;;20.30;95.90;;;;;;5035183;28;20041;-33
2023/06/15 08:18:23;;;;;;;2.72;2.20;;;20.30;95.90;;;;;;5034849;28;20036;-36
2023/06/15 08:20:48;;;;;;;2.50;1.98;;;20.30;95.90;;;;;;5034785;28;20096;-36
2023/06/15 08:23:15;;;;;;;3.08;2.22;;;20.30;95.90;;;;;;5034869;28;20373;-36
2023/06/15 08:25:41;;;;;;;4.13;2.20;;;20.30;95.90;;;;;;5034644;28;20017;-39
2023/06/15 08:28:07;;;;;;;2.97;2.25;;;20.30;95.90;;;;;;5034620;28;20036;-39
2023/06/15 08:30:32;;;;;;;2.53;2.03;;;20.30;95.80;;;;;;5034509;28;20095;-36
2023/06/15 08:32:58;;;;;;;3.83;2.00;;;20.30;95.80;;;;;;5034726;28;20037;-33
2023/06/15 08:35:24;;;;;;;2.92;1.75;;;20.30;95.80;;;;;;5034677;28;20029;-37
2023/06/15 08:37:49;;;;;;;2.50;2.00;;;20.30;95.80;;;;;;5034468;28;20448;-36
2023/06/15 08:40:15;;;;;;;2.53;2.00;;;20.30;95.80;;;;;;5034931;28;20033;-36
2023/06/15 08:42:41;;;;;;;3.90;2.28;;;20.40;95.90;;;;;;5034702;28;20021;-37
2023/06/15 08:45:07;;;;;;;2.05;1.85;;;20.40;95.80;;;;;;5034443;28;20112;-35
2023/06/15 08:47:34;;;;;;;2.35;2.00;;;20.40;95.90;;;;;;5034576;28;20033;-36
2023/06/15 08:50:02;;;;;;;3.75;2.20;;;20.30;95.80;;;;;;5034189;28;20037;-35
2023/06/15 08:52:32;;;;;;;3.05;2.05;;;20.30;95.80;;;;;;5034288;28;20037;-35
2023/06/15 08:55:00;;;;;;;1.98;1.77;;;20.40;95.80;;;;;;5034417;28;20039;-36
2023/06/15 08:57:27;;;;;;;3.35;2.15;;;20.40;95.90;;;;;;5034201;28;20025;-35
2023/06/15 08:59:53;;;;;;;3.67;2.08;;;20.40;95.80;;;;;;5034044;28;20029;-34
2023/06/15 09:02:25;;;;;;;2.70;2.25;;;20.40;95.80;;;;;;5034002;28;20029;-39
2023/06/15 09:04:52;;;;;;;2.25;1.88;;;20.40;95.80;;;;;;5034529;28;20047;-34
2023/06/15 09:07:18;;;;;;;2.33;1.77;;;20.40;95.80;;;;;;5034799;28;20025;-34
2023/06/15 09:10:15;;;;;;;3.15;2.28;;;20.40;95.80;;;;;;5034002;28;20045;-39
2023/06/15 09:12:45;;;;;;;2.85;1.92;;;20.40;95.80;;;;;;5033861;28;20104;-36
2023/06/15 09:15:37;;;;;;;2.55;2.08;;;20.40;95.80;;;;;;5033832;28;20508;-34
2023/06/15 09:18:03;;;;;;;2.17;1.80;;;20.40;95.80;;;;;;5035404;28;20025;-41
2023/06/15 09:20:31;;;;;;;1.95;1.75;;;20.50;95.80;;;;;;5032664;28;20507;-35
2023/06/15 09:22:59;;;;;;;4.47;2.03;;;20.50;95.80;;;;;;5033881;28;20033;-36
2023/06/15 09:25:25;;;;;;;3.88;2.47;;;20.50;95.80;;;;;;5034036;28;20440;-36
2023/06/15 09:27:56;;;;;;;3.78;1.80;;;20.50;95.80;;;;;;5033446;28;20017;-36
2023/06/15 09:30:34;;;;;;;3.13;2.20;;;20.50;95.80;;;;;;5033329;28;20030;-35
2023/06/15 09:33:20;;;;;;;2.67;2.00;;;20.50;95.80;;;;;;5033584;28;20028;-39
2023/06/15 09:36:02;;;;;;;2.47;2.00;;;20.50;95.80;;;;;;5033212;28;20163;-39
2023/06/15 09:38:31;;;;;;;2.40;1.90;;;20.50;95.80;;;;;;5033328;28;20472;-36
2023/06/15 09:41:05;;;;;;;2.97;1.98;;;20.50;95.80;;;;;;5033420;28;20040;-36
2023/06/15 09:43:33;;;;;;;2.97;1.90;;;20.50;95.80;;;;;;5033777;28;20025;-35
2023/06/15 09:46:01;;;;;;;2.83;1.98;;;20.50;95.80;;;;;;5033284;28;20110;-36
2023/06/15 09:48:28;;;;;;;2.83;2.03;;;20.50;95.80;;;;;;5034629;28;20025;-33
2023/06/15 09:51:01;;;;;;;3.30;1.98;;;20.50;95.80;;;;;;5033468;28;20104;-36
2023/06/15 09:53:30;;;;;;;2.30;1.90;;;20.50;95.80;;;;;;5033531;28;20451;-39
2023/06/15 09:55:57;;;;;;;2.80;2.03;;;20.50;95.80;;;;;;5033380;28;20551;-34
2023/06/15 09:58:23;;;;;;;2.05;1.77;;;20.50;95.80;;;;;;5033063;28;20026;-36
2023/06/15 10:00:49;;;;;;;3.20;2.10;;;20.50;95.80;;;;;;5033273;28;20128;-39
2023/06/15 10:03:19;;;;;;;4.65;2.05;;;20.50;95.80;;;;;;5033004;28;20093;-35
2023/06/15 10:05:48;;;;;;;2.40;1.88;;;20.50;96.10;;;;;;5033288;28;20492;-37
2023/06/15 10:08:18;;;;;;;2.90;2.03;;;20.50;95.80;;;;;;5033021;28;20034;-36
2023/06/15 10:10:44;;;;;;;3.40;2.30;;;20.50;95.70;;;;;;5032833;28;20543;-39
2023/06/15 10:13:22;;;;;;;2.42;2.03;;;20.50;95.70;;;;;;5033046;28;20033;-34
2023/06/15 10:15:55;;;;;;;2.53;1.83;;;20.50;95.70;;;;;;5032863;28;20033;-39
2023/06/15 10:18:22;;;;;;;3.17;1.80;;;20.50;95.70;;;;;;5032614;28;20026;-36
2023/06/15 10:20:53;;;;;;;3.17;2.20;;;20.50;95.70;;;;;;5032466;28;20025;-34
2023/06/15 10:23:26;;;;;;;2.35;1.73;;;20.60;95.70;;;;;;5033392;28;20037;-36
2023/06/15 10:25:57;;;;;;;2.15;1.88;;;20.60;95.70;;;;;;5032655;28;20100;-34
2023/06/15 10:28:27;;;;;;;4.35;2.00;;;20.60;95.70;;;;;;5033240;28;20048;-36
2023/06/15 10:31:22;;;;;;;2.47;2.10;;;20.60;95.70;;;;;;5032280;28;20053;-38
2023/06/15 10:34:06;;;;;;;3.30;1.92;;;20.60;95.70;;;;;;5033290;28;20022;-34
2023/06/15 10:36:46;;;;;;;3.33;2.00;;;20.60;95.70;;;;;;5032870;28;20037;-36
2023/06/15 10:39:38;;;;;;;4.03;1.90;;;20.60;95.60;;;;;;5032330;28;20268;-34
2023/06/15 10:42:08;;;;;;;2.08;1.63;;;20.70;95.70;;;;;;5032163;28;20143;-36
2023/06/15 10:44:34;;;;;;;2.40;1.98;;;20.70;95.60;;;;;;5032131;28;20021;-34
2023/06/15 10:47:13;;;;;;;2.10;1.77;;;20.60;95.60;;;;;;5032346;28;20029;-35
2023/06/15 10:49:50;;;;;;;4.13;2.10;;;20.70;95.60;;;;;;5032381;28;20045;-37
2023/06/15 10:52:16;;;;;;;4.05;2.15;;;20.70;95.50;;;;;;5031986;28;20026;-36
2023/06/15 10:54:41;;;;;;;2.38;1.80;;;20.60;95.50;;;;;;5031992;28;20043;-36
2023/06/15 10:57:08;;;;;;;2.28;1.80;;;20.70;95.50;;;;;;5032167;28;20050;-35
2023/06/15 10:59:45;;;;;;;2.30;1.70;;;20.70;95.90;;;;;;5032477;28;20021;-41
2023/06/15 11:02:31;;;;;;;2.40;1.80;;;20.70;95.50;;;;;;5032247;28;20025;-36
2023/06/15 11:05:16;;;;;;;2.67;1.90;;;20.70;95.50;;;;;;5031791;28;20029;-36
2023/06/15 11:07:48;;;;;;;3.55;1.83;;;20.70;95.50;;;;;;5032164;28;20038;-36
2023/06/15 11:10:22;;;;;;;3.22;1.98;;;20.70;95.50;;;;;;5031421;28;20100;-39
2023/06/15 11:12:58;;;;;;;2.60;1.80;;;20.70;95.50;;;;;;5031916;28;20053;-36
2023/06/15 11:15:34;;;;;;;2.10;1.90;;;20.60;95.50;;;;;;5031720;28;20040;-41
2023/06/15 11:18:04;;;;;;;2.28;2.08;;;20.70;95.50;;;;;;5031585;28;20025;-40
2023/06/15 11:20:51;;;;;;;1.90;1.70;;;20.70;95.50;;;;;;5031362;28;20103;-36
2023/06/15 11:23:18;;;;;;;3.35;2.08;;;20.70;95.50;;;;;;5031558;28;20036;-36
2023/06/15 11:25:46;;;;;;;2.10;1.83;;;20.70;95.50;;;;;;5031664;28;20057;-37
2023/06/15 11:28:15;;;;;;;2.38;1.75;;;20.70;95.50;;;;;;5031445;28;20043;-35
2023/06/15 11:30:41;;;;;;;4.15;2.00;;;20.70;95.50;;;;;;5031243;28;20527;-36
2023/06/15 11:33:13;;;;;;;3.25;2.20;;;20.70;95.50;;;;;;5014445;28;20056;-37
2023/06/15 11:35:40;;;;;;;2.67;2.00;;;20.70;95.50;;;;;;5031518;28;20037;-39
2023/06/15 11:38:09;;;;;;;2.17;1.80;;;20.70;95.50;;;;;;5046522;28;20029;-39
2023/06/15 11:40:35;;;;;;;2.00;1.80;;;20.80;95.50;;;;;;5031108;28;20021;-35
2023/06/15 11:43:11;;;;;;;2.40;2.00;;;20.70;95.50;;;;;;5030954;28;20381;-34
2023/06/15 11:45:38;;;;;;;3.08;1.90;;;20.80;95.50;;;;;;5031698;28;20107;-40
2023/06/15 11:48:13;;;;;;;2.80;1.85;;;20.80;95.50;;;;;;5031943;28;20109;-36
2023/06/15 11:50:45;;;;;;;2.10;1.70;;;20.70;95.50;;;;;;5031535;28;20017;-34
2023/06/15 11:53:16;;;;;;;2.40;2.05;;;20.70;95.50;;;;;;5031222;28;20472;-36
2023/06/15 11:55:46;;;;;;;2.28;1.70;;;20.70;95.50;;;;;;5031778;28;20140;-40
2023/06/15 11:58:12;;;;;;;2.10;1.80;;;20.70;95.80;;;;;;5031037;28;20021;-38
2023/06/15 12:00:41;;;;;;;3.50;1.83;;;20.70;95.50;;;;;;5030994;28;20033;-35
2023/06/15 12:03:12;;;;;;;2.08;1.73;;;20.70;95.50;;;;;;5031134;28;20104;-36
2023/06/15 12:05:39;;;;;;;3.13;2.13;;;20.70;95.50;;;;;;5031000;28;20391;-36
2023/06/15 12:08:06;;;;;;;2.53;1.73;;;20.70;95.50;;;;;;5030845;28;20026;-36
2023/06/15 12:10:37;;;;;;;2.75;1.73;;;20.70;95.50;;;;;;5032481;28;20022;-35
2023/06/15 12:13:03;;;;;;;2.45;1.90;;;20.70;95.40;;;;;;5031331;28;20013;-39
2023/06/15 12:15:30;;;;;;;2.58;1.75;;;20.70;95.50;;;;;;5030975;28;20032;-36
2023/06/15 12:17:56;;;;;;;2.05;1.65;;;20.70;95.50;;;;;;5031197;28;20454;-37
2023/06/15 12:20:28;;;;;;;3.80;1.83;;;20.70;95.40;;;;;;5032666;28;20029;-34
2023/06/15 12:22:53;;;;;;;2.05;1.83;;;20.70;95.50;;;;;;5031436;28;20025;-36
2023/06/15 12:25:38;;;;;;;3.13;1.60;;;20.70;95.50;;;;;;5032090;28;20496;-36
2023/06/15 12:28:21;;;;;;;2.42;1.85;;;20.70;95.50;;;;;;5031710;28;20160;-36
2023/06/15 12:30:49;;;;;;;2.72;1.90;;;20.70;95.50;;;;;;5030697;28;20505;-37
2023/06/15 12:33:32;;;;;;;2.38;2.00;;;20.70;95.50;;;;;;5031074;28;20017;-39
2023/06/15 12:36:02;;;;;;;2.10;1.77;;;20.70;95.50;;;;;;5030879;28;20033;-38
2023/06/15 12:38:29;;;;;;;2.10;1.60;;;20.70;95.50;;;;;;5030712;28;20126;-36
2023/06/15 12:40:56;;;;;;;2.03;1.80;;;20.80;95.50;;;;;;5030722;28;20025;-40
2023/06/15 12:43:26;;;;;;;2.60;1.88;;;20.70;95.50;;;;;;5030793;28;20392;-35
2023/06/15 12:45:54;;;;;;;2.25;1.98;;;20.70;95.50;;;;;;5030657;28;20017;-39
2023/06/15 12:48:23;;;;;;;2.28;1.88;;;20.70;95.50;;;;;;5030816;28;20099;-36
2023/06/15 12:50:53;;;;;;;3.03;1.95;;;20.80;95.50;;;;;;5030510;28;20076;-34
2023/06/15 12:53:20;;;;;;;2.30;1.90;;;20.80;95.50;;;;;;5030653;28;20079;-36